Time;durP1;ratioP1;P1;durP2;ratioP2;P2;SDS_P1;SDS_P2;PMS_P1;PMS_P2;Temp;Humidity;BMP_temperature;BMP_pressure;BME280_temperature;BME280_humidity;BME280_pressure;Samples;Min_cycle;Max_cycle;Signal;HPM_P1;HPM_P2
2022/12/12 00:01:19;;;;;;;16.00;11.07;;;-0.10;99.90;;;;;;5025883;28;20057;-75
2022/12/12 00:03:44;;;;;;;25.17;15.07;;;-0.10;99.90;;;;;;5025609;28;20410;-74
2022/12/12 00:06:11;;;;;;;18.50;12.73;;;-0.20;99.90;;;;;;5038954;28;20045;-75
2022/12/12 00:08:37;;;;;;;20.10;13.87;;;-0.10;99.90;;;;;;5025660;28;20520;-75
2022/12/12 00:11:03;;;;;;;16.73;10.30;;;-0.20;99.90;;;;;;5023950;28;20112;-74
2022/12/12 00:13:29;;;;;;;23.70;13.90;;;-0.20;99.90;;;;;;5024089;28;20106;-75
2022/12/12 00:15:55;;;;;;;16.13;12.40;;;-0.20;99.90;;;;;;5025364;28;20124;-75
2022/12/12 00:18:20;;;;;;;20.20;13.03;;;-0.20;99.90;;;;;;5038337;28;20041;-75
2022/12/12 00:20:54;;;;;;;22.80;11.00;;;-0.20;99.90;;;;;;5027858;28;20111;-74
2022/12/12 00:23:21;;;;;;;14.10;9.17;;;-0.20;99.90;;;;;;5008692;28;20128;-75
2022/12/12 00:26:01;;;;;;;21.50;12.17;;;-0.20;99.90;;;;;;5033799;28;20124;-75
2022/12/12 00:28:28;;;;;;;23.80;15.07;;;-0.20;99.90;;;;;;5014509;28;20048;-75
2022/12/12 00:30:54;;;;;;;23.20;11.43;;;-0.20;99.90;;;;;;5039571;28;20038;-75
2022/12/12 00:33:20;;;;;;;25.43;13.03;;;-0.20;99.90;;;;;;5030160;28;20041;-75
2022/12/12 00:35:49;;;;;;;24.27;11.77;;;-0.10;99.90;;;;;;5029720;28;20045;-75
2022/12/12 00:38:16;;;;;;;15.37;12.77;;;-0.10;99.90;;;;;;5035663;28;20080;-77
2022/12/12 00:40:42;;;;;;;24.53;12.77;;;-0.10;99.90;;;;;;5024080;28;20042;-74
2022/12/12 00:43:08;;;;;;;20.90;11.73;;;-0.10;99.90;;;;;;5024602;28;20393;-74
2022/12/12 00:45:35;;;;;;;17.87;12.70;;;0.00;99.90;;;;;;5032870;28;20029;-75
2022/12/12 00:48:01;;;;;;;34.50;13.00;;;0.00;99.90;;;;;;5042656;28;20045;-75
2022/12/12 00:50:26;;;;;;;16.50;11.57;;;0.00;99.90;;;;;;5033748;28;20397;-74
2022/12/12 00:52:52;;;;;;;21.13;12.83;;;0.00;99.90;;;;;;5044170;28;20040;-75
2022/12/12 00:55:17;;;;;;;28.80;15.23;;;0.10;99.90;;;;;;5044091;28;20398;-75
2022/12/12 00:57:43;;;;;;;23.13;14.07;;;0.10;99.90;;;;;;5043600;28;20041;-75
2022/12/12 01:00:12;;;;;;;20.20;12.63;;;0.10;99.90;;;;;;5022713;28;20104;-75
2022/12/12 01:02:37;;;;;;;19.57;13.70;;;0.10;99.90;;;;;;5024361;28;20045;-74
2022/12/12 01:05:03;;;;;;;22.00;12.63;;;0.10;99.90;;;;;;5024877;28;20079;-75
2022/12/12 01:07:29;;;;;;;23.83;13.87;;;0.10;99.90;;;;;;5041966;28;20537;-74
2022/12/12 01:09:54;;;;;;;24.13;15.73;;;0.20;99.90;;;;;;5042746;28;20041;-75
2022/12/12 01:12:20;;;;;;;24.97;12.80;;;0.10;99.90;;;;;;5012439;28;20412;-75
2022/12/12 01:14:46;;;;;;;24.50;13.10;;;0.20;99.90;;;;;;5023444;28;20044;-74
2022/12/12 01:17:11;;;;;;;21.60;13.50;;;0.20;99.90;;;;;;5035433;28;20600;-75
2022/12/12 01:19:37;;;;;;;25.60;12.63;;;0.20;99.90;;;;;;5041478;28;20041;-75
2022/12/12 01:22:03;;;;;;;20.80;11.20;;;0.20;99.90;;;;;;5044122;28;20091;-74
2022/12/12 01:24:28;;;;;;;23.60;12.00;;;0.20;99.90;;;;;;5043121;28;20100;-75
2022/12/12 01:26:54;;;;;;;22.07;14.03;;;0.20;99.90;;;;;;5032401;28;20048;-75
2022/12/12 01:29:20;;;;;;;22.10;12.40;;;0.20;99.90;;;;;;5026560;28;20049;-75
2022/12/12 01:31:45;;;;;;;22.53;15.07;;;0.30;99.90;;;;;;5023186;28;20110;-74
2022/12/12 01:34:11;;;;;;;24.17;14.90;;;0.20;99.90;;;;;;5021601;28;20735;-75
2022/12/12 01:36:37;;;;;;;20.20;14.53;;;0.30;99.90;;;;;;5036720;28;20118;-74
2022/12/12 01:39:04;;;;;;;25.20;12.93;;;0.30;99.90;;;;;;5041965;28;20051;-75
2022/12/12 01:41:31;;;;;;;21.90;14.53;;;0.40;99.90;;;;;;5042200;28;20095;-75
2022/12/12 01:44:01;;;;;;;23.23;13.30;;;0.30;99.90;;;;;;5028410;28;20042;-75
2022/12/12 01:46:40;;;;;;;31.43;16.00;;;0.40;99.90;;;;;;5027342;28;20044;-74
2022/12/12 01:49:14;;;;;;;23.67;13.03;;;0.40;99.90;;;;;;5021607;28;20714;-74
2022/12/12 01:51:41;;;;;;;26.60;14.30;;;0.40;99.90;;;;;;5043245;28;20128;-74
2022/12/12 01:54:10;;;;;;;24.07;13.67;;;0.40;99.90;;;;;;5030832;28;20046;-75
2022/12/12 01:56:38;;;;;;;18.97;13.10;;;0.40;99.90;;;;;;5023025;28;20072;-74
2022/12/12 01:59:07;;;;;;;22.13;15.67;;;0.40;99.90;;;;;;5022167;28;20049;-74
2022/12/12 02:01:34;;;;;;;22.93;13.10;;;0.40;99.90;;;;;;5038169;28;20092;-74
2022/12/12 02:04:01;;;;;;;21.33;12.60;;;0.40;99.90;;;;;;5036252;28;20053;-75
2022/12/12 02:06:28;;;;;;;21.23;15.00;;;0.40;99.90;;;;;;5023485;28;20037;-74
2022/12/12 02:08:58;;;;;;;23.53;14.33;;;0.40;99.90;;;;;;5094490;22;20346;-77
2022/12/12 02:11:27;;;;;;;21.93;12.47;;;0.50;99.90;;;;;;5003437;28;20065;-77
2022/12/12 02:13:52;;;;;;;26.83;13.77;;;0.50;99.90;;;;;;4995478;28;20053;-77
2022/12/12 02:16:33;;;;;;;24.40;15.07;;;0.50;99.90;;;;;;5003508;28;20044;-76
2022/12/12 02:19:29;;;;;;;25.80;14.07;;;0.50;99.90;;;;;;5001820;28;20042;-76
2022/12/12 02:22:03;;;;;;;24.90;14.03;;;0.50;99.90;;;;;;5001551;28;20078;-76
2022/12/12 02:24:51;;;;;;;20.00;15.03;;;0.50;99.90;;;;;;5003151;28;20104;-76
2022/12/12 02:27:34;;;;;;;19.63;14.83;;;0.50;99.90;;;;;;4991076;28;20049;-76
2022/12/12 02:30:21;;;;;;;17.93;11.57;;;0.50;99.90;;;;;;4985946;28;20046;-76
2022/12/12 02:33:20;;;;;;;27.83;16.97;;;0.50;99.90;;;;;;5003540;28;20079;-77
2022/12/12 02:36:11;;;;;;;33.83;15.50;;;0.50;99.90;;;;;;5002428;28;20099;-77
2022/12/12 02:38:51;;;;;;;20.93;13.83;;;0.60;99.90;;;;;;5002557;28;20046;-75
2022/12/12 02:41:30;;;;;;;32.47;18.60;;;0.50;99.90;;;;;;5003063;28;20045;-77
2022/12/12 02:44:12;;;;;;;25.63;15.37;;;0.50;99.90;;;;;;4984637;28;20074;-75
2022/12/12 02:46:56;;;;;;;16.45;14.07;;;0.50;99.90;;;;;;5002480;28;20113;-75
2022/12/12 02:49:37;;;;;;;34.27;15.57;;;0.60;99.90;;;;;;4990256;28;20053;-75
2022/12/12 02:52:04;;;;;;;21.50;14.50;;;0.60;99.90;;;;;;5002558;28;20044;-75
2022/12/12 02:54:30;;;;;;;25.87;14.87;;;0.60;99.90;;;;;;5002807;28;20046;-76
2022/12/12 02:56:58;;;;;;;24.73;13.53;;;0.60;99.90;;;;;;5001853;28;20113;-75
2022/12/12 02:59:28;;;;;;;37.03;14.73;;;0.50;99.90;;;;;;5002679;28;20049;-75
2022/12/12 03:02:12;;;;;;;20.50;15.80;;;0.50;99.90;;;;;;4998463;28;20074;-76
2022/12/12 03:08:09;;;;;;;27.77;18.37;;;0.60;99.90;;;;;;4983602;28;20054;-77
2022/12/12 03:11:09;;;;;;;32.07;16.93;;;0.50;99.90;;;;;;5002765;28;20404;-76
2022/12/12 03:13:50;;;;;;;26.80;16.80;;;0.50;99.90;;;;;;4985191;28;20145;-76
2022/12/12 03:16:30;;;;;;;24.43;16.13;;;0.60;99.90;;;;;;5002676;28;20100;-75
2022/12/12 03:19:11;;;;;;;23.20;14.27;;;0.50;99.90;;;;;;5001498;28;20050;-75
2022/12/12 03:21:43;;;;;;;22.50;17.17;;;0.50;99.90;;;;;;5002010;28;20099;-76
2022/12/12 03:24:15;;;;;;;22.20;15.23;;;0.50;99.90;;;;;;5002045;28;20552;-75
2022/12/12 03:26:59;;;;;;;21.33;13.10;;;0.50;99.90;;;;;;5002586;28;20034;-77
2022/12/12 03:29:29;;;;;;;23.33;14.63;;;0.50;99.90;;;;;;5002412;28;20708;-77
2022/12/12 03:32:08;;;;;;;20.10;13.20;;;0.50;99.90;;;;;;5005560;28;20045;-77
2022/12/12 03:34:41;;;;;;;18.70;13.13;;;0.50;99.90;;;;;;5005076;28;20125;-75
2022/12/12 03:37:17;;;;;;;31.07;12.63;;;0.50;99.90;;;;;;5005723;28;20104;-76
2022/12/12 03:39:55;;;;;;;22.80;13.53;;;0.40;99.90;;;;;;4992719;28;20408;-76
2022/12/12 03:42:43;;;;;;;23.73;13.90;;;0.40;99.90;;;;;;5005881;28;20045;-76
2022/12/12 03:45:30;;;;;;;27.63;14.93;;;0.30;99.90;;;;;;5004671;28;20068;-76
2022/12/12 03:48:02;;;;;;;18.90;10.60;;;0.30;99.90;;;;;;5003495;28;20085;-76
2022/12/12 03:50:33;;;;;;;25.52;16.30;;;0.30;99.90;;;;;;5005034;28;20082;-76
2022/12/12 03:53:10;;;;;;;28.65;13.07;;;0.20;99.90;;;;;;5004326;28;20073;-76
2022/12/12 03:55:49;;;;;;;24.63;14.20;;;0.20;99.90;;;;;;5005675;28;20124;-76
2022/12/12 03:58:34;;;;;;;23.83;13.57;;;0.20;99.90;;;;;;5005837;28;20547;-76
2022/12/12 04:01:06;;;;;;;20.67;11.37;;;0.20;99.90;;;;;;5005518;28;20034;-75
2022/12/12 04:03:39;;;;;;;26.95;15.65;;;0.20;99.90;;;;;;5004569;28;20041;-75
2022/12/12 04:06:27;;;;;;;20.00;13.53;;;0.20;99.90;;;;;;5005465;28;20124;-77
2022/12/12 04:14:48;;;;;;;19.00;12.97;;;0.20;99.90;;;;;;5004077;28;20054;-76
2022/12/12 04:17:17;;;;;;;19.20;11.03;;;0.20;99.90;;;;;;5004100;28;20049;-75
2022/12/12 04:28:56;;;;;;;21.87;12.67;;;0.10;99.90;;;;;;4953236;28;20061;-76
2022/12/12 04:31:25;;;;;;;23.73;14.00;;;0.10;99.90;;;;;;4987595;28;20526;-76
2022/12/12 04:33:57;;;;;;;26.53;13.90;;;0.10;99.90;;;;;;5004269;28;20042;-76
2022/12/12 04:36:23;;;;;;;21.77;13.70;;;0.10;99.90;;;;;;5004471;28;20121;-76
2022/12/12 04:38:50;;;;;;;24.20;14.50;;;0.10;99.90;;;;;;4987133;28;20164;-77
2022/12/12 04:41:19;;;;;;;25.13;14.57;;;0.10;99.90;;;;;;4986605;28;20034;-75
2022/12/12 04:43:47;;;;;;;18.70;11.10;;;0.10;99.90;;;;;;5005319;28;20478;-75
2022/12/12 04:46:21;;;;;;;22.37;13.70;;;0.10;99.90;;;;;;5004384;28;20046;-75
2022/12/12 04:48:54;;;;;;;20.67;12.10;;;0.10;99.90;;;;;;4986681;28;20057;-77
2022/12/12 04:51:33;;;;;;;23.27;16.17;;;0.10;99.90;;;;;;5004564;28;20038;-76
2022/12/12 04:54:12;;;;;;;19.87;13.50;;;0.10;99.90;;;;;;5004513;28;20072;-76
2022/12/12 04:56:40;;;;;;;15.43;12.37;;;0.10;99.90;;;;;;5004602;28;20057;-76
2022/12/12 04:59:07;;;;;;;21.67;12.73;;;0.10;99.90;;;;;;4987047;28;20133;-76
2022/12/12 05:01:51;;;;;;;25.27;15.30;;;0.10;99.90;;;;;;5004298;28;20042;-76
2022/12/12 05:05:04;;;;;;;23.57;12.60;;;0.10;99.90;;;;;;5004155;28;20492;-76
2022/12/12 05:07:33;;;;;;;;;;;0.10;99.90;;;;;;4905704;29;20059;-75
2022/12/12 05:10:01;;;;;;;18.93;11.77;;;0.10;99.90;;;;;;4904841;29;20759;-76
2022/12/12 05:12:27;;;;;;;25.10;13.87;;;0.10;99.90;;;;;;4954151;28;20046;-76
2022/12/12 05:14:52;;;;;;;17.10;11.90;;;0.10;99.90;;;;;;5004020;28;20041;-75
2022/12/12 05:17:26;;;;;;;19.13;13.80;;;0.10;99.90;;;;;;5004565;28;20485;-75
2022/12/12 05:19:52;;;;;;;20.93;12.47;;;0.20;99.90;;;;;;4997047;28;20555;-77
2022/12/12 05:22:17;;;;;;;28.80;14.93;;;0.20;99.90;;;;;;5004144;28;20042;-76
2022/12/12 05:24:43;;;;;;;21.43;13.23;;;0.20;99.90;;;;;;5003829;28;20050;-75
2022/12/12 05:27:11;;;;;;;23.57;15.10;;;0.20;99.90;;;;;;5003475;28;20042;-75
2022/12/12 05:29:37;;;;;;;17.70;13.03;;;0.20;99.90;;;;;;5003675;28;20046;-75
2022/12/12 05:32:03;;;;;;;20.77;13.27;;;0.20;99.90;;;;;;5003613;28;20065;-75
2022/12/12 05:34:28;;;;;;;24.07;12.40;;;0.20;99.90;;;;;;5003142;28;20042;-75
2022/12/12 05:36:54;;;;;;;24.67;13.40;;;0.20;99.90;;;;;;5003278;28;20065;-75
2022/12/12 05:39:20;;;;;;;19.77;13.83;;;0.30;99.90;;;;;;5000925;28;20125;-76
2022/12/12 05:41:45;;;;;;;20.40;12.10;;;0.20;99.90;;;;;;4986294;28;20558;-75
2022/12/12 05:44:11;;;;;;;15.90;11.73;;;0.30;99.90;;;;;;5003570;28;20046;-75
2022/12/12 05:46:37;;;;;;;17.13;12.30;;;0.30;99.90;;;;;;5003547;28;20096;-75
2022/12/12 05:49:03;;;;;;;16.10;10.87;;;0.30;99.90;;;;;;5001840;28;20720;-75
2022/12/12 05:51:28;;;;;;;21.33;14.03;;;0.30;99.90;;;;;;5003127;28;20041;-75
2022/12/12 05:53:54;;;;;;;26.63;13.43;;;0.30;99.90;;;;;;5000238;28;20117;-75
2022/12/12 05:56:19;;;;;;;15.30;12.20;;;0.30;99.90;;;;;;4984338;28;20487;-76
2022/12/12 05:58:45;;;;;;;19.10;11.57;;;0.30;99.90;;;;;;5003830;28;20046;-75
2022/12/12 06:01:10;;;;;;;13.47;11.33;;;0.40;99.90;;;;;;5003350;28;20046;-76
2022/12/12 06:03:36;;;;;;;23.90;11.63;;;0.40;99.90;;;;;;4985683;28;20551;-76
2022/12/12 06:06:02;;;;;;;24.27;13.90;;;0.40;99.90;;;;;;5003004;28;20038;-76
2022/12/12 06:08:28;;;;;;;17.33;11.13;;;0.40;99.90;;;;;;5000858;28;20069;-77
2022/12/12 06:10:54;;;;;;;23.40;12.93;;;0.40;99.90;;;;;;5002672;28;20302;-76
2022/12/12 06:13:22;;;;;;;17.87;11.90;;;0.40;99.90;;;;;;5002552;28;20184;-77
2022/12/12 06:15:48;;;;;;;22.27;13.00;;;0.40;99.90;;;;;;4983966;28;20127;-78
2022/12/12 06:18:14;;;;;;;23.57;11.60;;;0.40;99.90;;;;;;5000666;28;20432;-76
2022/12/12 06:20:39;;;;;;;15.03;10.73;;;0.40;99.90;;;;;;4983803;28;20050;-77
2022/12/12 06:23:06;;;;;;;25.40;14.17;;;0.40;99.90;;;;;;5000963;28;20212;-76
2022/12/12 06:25:31;;;;;;;18.80;10.97;;;0.50;99.90;;;;;;5002658;28;20455;-76
2022/12/12 06:27:57;;;;;;;20.93;12.23;;;0.50;99.90;;;;;;5002629;28;20041;-77
2022/12/12 06:30:23;;;;;;;17.27;10.37;;;0.50;99.90;;;;;;5003214;28;20107;-76
2022/12/12 06:32:48;;;;;;;20.43;11.23;;;0.50;99.90;;;;;;5001820;28;20034;-78
2022/12/12 06:35:14;;;;;;;20.30;12.23;;;0.50;99.90;;;;;;5002262;28;20141;-76
2022/12/12 06:37:40;;;;;;;16.27;10.20;;;0.50;99.90;;;;;;5002874;28;20045;-76
2022/12/12 06:40:06;;;;;;;26.37;14.87;;;0.50;99.90;;;;;;4984415;28;20049;-76
2022/12/12 06:42:32;;;;;;;17.93;9.73;;;0.50;99.90;;;;;;5001914;28;20040;-76
2022/12/12 06:44:57;;;;;;;17.83;10.37;;;0.50;99.90;;;;;;5002909;28;20492;-75
2022/12/12 06:47:23;;;;;;;15.73;11.70;;;0.50;99.90;;;;;;5002505;28;20041;-76
2022/12/12 06:49:49;;;;;;;22.53;12.13;;;0.50;99.90;;;;;;5001143;28;20042;-77
2022/12/12 06:52:14;;;;;;;20.93;14.10;;;0.50;99.90;;;;;;5002747;28;20041;-75
2022/12/12 06:54:40;;;;;;;18.60;10.30;;;0.50;99.90;;;;;;4988485;28;20476;-76
2022/12/12 06:57:05;;;;;;;13.13;10.63;;;0.50;99.90;;;;;;5002340;28;20513;-75
2022/12/12 06:59:31;;;;;;;19.17;10.50;;;0.50;99.90;;;;;;5001813;28;20149;-73
2022/12/12 07:01:57;;;;;;;20.20;12.07;;;0.50;99.90;;;;;;5001662;28;20128;-76
2022/12/12 07:04:22;;;;;;;18.63;10.93;;;0.50;99.90;;;;;;5001316;28;20053;-74
2022/12/12 07:06:48;;;;;;;17.50;11.33;;;0.50;99.90;;;;;;5005736;28;20128;-78
2022/12/12 07:09:14;;;;;;;14.23;9.30;;;0.50;99.90;;;;;;5005470;28;20141;-76
2022/12/12 07:11:40;;;;;;;25.10;12.90;;;0.50;99.90;;;;;;5005863;28;20037;-75
2022/12/12 07:14:06;;;;;;;15.40;10.37;;;0.50;99.90;;;;;;5005351;28;20330;-75
2022/12/12 07:16:32;;;;;;;24.33;13.07;;;0.50;99.90;;;;;;5005758;28;20508;-76
2022/12/12 07:18:58;;;;;;;15.03;9.37;;;0.50;99.90;;;;;;4986616;28;20185;-76
2022/12/12 07:21:23;;;;;;;22.03;11.00;;;0.50;99.90;;;;;;5005524;28;20038;-76
2022/12/12 07:23:49;;;;;;;25.73;12.50;;;0.50;99.90;;;;;;5005149;28;20094;-75
2022/12/12 07:26:18;;;;;;;21.10;10.77;;;0.50;99.90;;;;;;5005781;28;20038;-76
2022/12/12 07:28:44;;;;;;;13.27;9.33;;;0.50;99.90;;;;;;5005672;28;20056;-75
2022/12/12 07:31:12;;;;;;;18.23;11.00;;;0.50;99.90;;;;;;5005216;28;20034;-75
2022/12/12 07:33:38;;;;;;;12.97;10.07;;;0.50;99.90;;;;;;5004284;28;20144;-75
2022/12/12 07:36:04;;;;;;;20.57;8.77;;;0.50;99.90;;;;;;5004720;28;20238;-74
2022/12/12 07:38:30;;;;;;;21.47;11.70;;;0.50;99.90;;;;;;5004321;28;20496;-75
2022/12/12 07:41:02;;;;;;;19.33;11.53;;;0.50;99.90;;;;;;5006174;28;20044;-75
2022/12/12 07:43:28;;;;;;;;;;;0.50;99.90;;;;;;5005541;28;20052;-74
2022/12/12 07:45:53;;;;;;;12.93;8.77;;;0.50;99.90;;;;;;5004652;28;19921;-73
2022/12/12 07:48:19;;;;;;;16.13;10.50;;;0.50;99.90;;;;;;4998859;28;20048;-75
2022/12/12 07:50:45;;;;;;;16.43;10.50;;;0.50;99.90;;;;;;5005582;28;20430;-74
2022/12/12 07:53:10;;;;;;;19.40;11.20;;;0.60;99.90;;;;;;5005418;28;20057;-75
2022/12/12 07:55:39;;;;;;;24.23;13.83;;;0.50;99.90;;;;;;5005263;28;20045;-74
2022/12/12 07:58:04;;;;;;;18.23;11.47;;;0.50;99.90;;;;;;5005313;28;20045;-74
2022/12/12 08:00:30;;;;;;;19.57;13.97;;;0.50;99.90;;;;;;5005024;28;20049;-73
2022/12/12 08:02:55;;;;;;;12.23;8.90;;;0.60;99.90;;;;;;5002634;28;20045;-74
2022/12/12 08:05:21;;;;;;;21.53;11.60;;;0.60;99.90;;;;;;5004775;28;20501;-76
2022/12/12 08:07:47;;;;;;;14.00;9.90;;;0.60;99.90;;;;;;5004444;28;20053;-75
2022/12/12 08:10:12;;;;;;;16.40;9.87;;;0.60;99.90;;;;;;5004258;28;20101;-75
2022/12/12 08:12:38;;;;;;;18.43;11.67;;;0.60;99.90;;;;;;5004904;28;20200;-76
2022/12/12 08:15:04;;;;;;;12.97;9.40;;;0.60;99.90;;;;;;4980437;28;20361;-75
2022/12/12 08:17:29;;;;;;;17.77;12.83;;;0.60;99.90;;;;;;5008790;28;20034;-75
2022/12/12 08:19:55;;;;;;;15.70;10.57;;;0.60;99.90;;;;;;4986277;28;20038;-75
2022/12/12 08:22:21;;;;;;;11.53;8.23;;;0.60;99.90;;;;;;5006406;28;20504;-75
2022/12/12 08:24:48;;;;;;;21.03;10.67;;;0.50;99.90;;;;;;4981343;28;20038;-75
2022/12/12 08:27:14;;;;;;;16.17;9.87;;;0.50;99.90;;;;;;4993835;28;20034;-75
2022/12/12 08:29:39;;;;;;;15.80;10.53;;;0.50;99.90;;;;;;5005352;28;20550;-75
2022/12/12 08:32:05;;;;;;;21.50;14.70;;;0.50;99.90;;;;;;4982510;28;20046;-76
2022/12/12 08:34:31;;;;;;;16.87;10.83;;;0.50;99.90;;;;;;4973406;28;20065;-75
2022/12/12 08:36:56;;;;;;;15.67;10.97;;;0.40;99.90;;;;;;4981100;28;20034;-74
2022/12/12 08:39:22;;;;;;;16.43;12.63;;;0.40;99.90;;;;;;5001624;28;20050;-75
2022/12/12 08:41:48;;;;;;;16.43;10.90;;;0.40;99.90;;;;;;5003515;28;20053;-74
2022/12/12 08:44:16;;;;;;;14.10;8.77;;;0.40;99.90;;;;;;5003769;28;20137;-75
2022/12/12 08:46:42;;;;;;;21.50;12.67;;;0.40;99.90;;;;;;5003591;28;20049;-76
2022/12/12 08:49:08;;;;;;;18.07;12.77;;;0.40;99.90;;;;;;5002818;28;20046;-74
2022/12/12 08:51:38;;;;;;;18.90;12.17;;;0.40;99.90;;;;;;5003091;28;20034;-75
2022/12/12 08:54:03;;;;;;;20.37;12.43;;;0.40;99.90;;;;;;5003332;28;20511;-74
2022/12/12 08:56:29;;;;;;;18.47;10.00;;;0.40;99.90;;;;;;4986476;28;20046;-75
2022/12/12 08:58:54;;;;;;;18.83;11.60;;;0.40;99.90;;;;;;5003221;28;20041;-74
2022/12/12 09:01:25;;;;;;;16.50;10.90;;;0.40;99.90;;;;;;5003054;28;20504;-77
2022/12/12 09:03:52;;;;;;;14.17;12.50;;;0.30;99.90;;;;;;5002178;28;20088;-77
2022/12/12 09:06:19;;;;;;;15.80;9.97;;;0.30;99.90;;;;;;5002806;28;20391;-80
2022/12/12 09:08:45;;;;;;;18.83;11.47;;;0.40;99.90;;;;;;4983094;28;20326;-78
2022/12/12 09:11:10;;;;;;;16.17;10.93;;;0.40;99.90;;;;;;4981353;28;20374;-80
2022/12/12 09:13:37;;;;;;;20.37;13.27;;;0.30;99.90;;;;;;4982301;28;20051;-79
2022/12/12 09:16:04;;;;;;;14.80;11.27;;;0.30;99.90;;;;;;4982146;28;20477;-79
2022/12/12 09:18:29;;;;;;;23.63;11.83;;;0.30;99.90;;;;;;4981468;28;20125;-79
2022/12/12 09:20:57;;;;;;;19.50;11.23;;;0.30;99.90;;;;;;4983319;28;20626;-79
2022/12/12 09:23:23;;;;;;;18.27;11.13;;;0.30;99.90;;;;;;4982523;28;20042;-79
2022/12/12 09:25:49;;;;;;;22.37;10.90;;;0.30;99.90;;;;;;4981496;28;20035;-80
2022/12/12 09:28:16;;;;;;;18.07;11.83;;;0.30;99.90;;;;;;4966255;28;20302;-79
2022/12/12 09:30:43;;;;;;;18.27;11.03;;;0.20;99.90;;;;;;4983441;28;20045;-78
2022/12/12 09:33:09;;;;;;;22.47;10.40;;;0.20;99.90;;;;;;4982281;28;20050;-79
2022/12/12 09:35:35;;;;;;;16.47;11.37;;;0.20;99.90;;;;;;4982481;28;20038;-79
2022/12/12 09:38:01;;;;;;;23.37;13.50;;;0.20;99.90;;;;;;4982403;28;20061;-79
2022/12/12 09:40:36;;;;;;;16.50;11.07;;;0.30;99.90;;;;;;4982677;28;20038;-77
2022/12/12 09:43:02;;;;;;;22.80;13.50;;;0.30;99.90;;;;;;4982851;28;20074;-79
2022/12/12 09:45:32;;;;;;;24.20;13.13;;;0.30;99.90;;;;;;4983049;28;20536;-78
2022/12/12 09:48:01;;;;;;;22.00;11.90;;;0.30;99.90;;;;;;4981612;28;20049;-79
2022/12/12 09:50:35;;;;;;;20.90;12.30;;;0.30;99.90;;;;;;4995664;28;20034;-80
2022/12/12 09:53:05;;;;;;;22.63;13.67;;;0.30;99.90;;;;;;4981519;28;20046;-79
2022/12/12 09:55:43;;;;;;;16.00;12.47;;;0.30;99.90;;;;;;4983988;28;20460;-78
2022/12/12 09:58:44;;;;;;;20.97;11.57;;;0.40;99.90;;;;;;4965295;28;20520;-78
2022/12/12 10:01:29;;;;;;;23.97;12.53;;;0.40;99.90;;;;;;4982726;28;20125;-78
2022/12/12 10:04:09;;;;;;;19.13;11.10;;;0.40;99.90;;;;;;4980041;28;20057;-77
2022/12/12 10:06:45;;;;;;;20.70;12.37;;;0.50;99.90;;;;;;4982201;28;20031;-78
2022/12/12 10:09:47;;;;;;;26.70;11.63;;;0.40;99.90;;;;;;4987615;28;20204;-77
2022/12/12 10:12:15;;;;;;;23.87;13.43;;;0.50;99.90;;;;;;5021595;28;20054;-79
2022/12/12 10:14:56;;;;;;;21.67;12.60;;;0.50;99.90;;;;;;5022155;28;20353;-80
2022/12/12 10:17:33;;;;;;;21.37;13.50;;;0.50;99.90;;;;;;5019561;28;20033;-75
2022/12/12 10:20:03;;;;;;;18.90;12.77;;;0.50;99.90;;;;;;5001358;28;20037;-76
2022/12/12 10:22:54;;;;;;;25.10;15.17;;;0.60;99.90;;;;;;5001692;28;20038;-75
2022/12/12 10:25:58;;;;;;;15.43;12.17;;;0.60;99.90;;;;;;4994277;28;20041;-76
2022/12/12 10:28:27;;;;;;;17.17;13.60;;;0.60;99.90;;;;;;4978193;28;20057;-75
2022/12/12 10:31:19;;;;;;;22.50;13.13;;;0.60;99.90;;;;;;4998259;28;20096;-75
2022/12/12 10:34:00;;;;;;;21.03;11.27;;;0.70;99.90;;;;;;4992019;28;20431;-75
2022/12/12 10:36:37;;;;;;;19.13;12.73;;;0.70;99.90;;;;;;5002260;28;20122;-75
2022/12/12 10:39:27;;;;;;;16.00;12.00;;;0.70;99.90;;;;;;5000989;28;20048;-75
2022/12/12 10:42:05;;;;;;;22.43;14.63;;;0.70;99.90;;;;;;5001151;28;20097;-75
2022/12/12 10:44:49;;;;;;;26.07;12.17;;;0.70;99.90;;;;;;5001300;28;20045;-75
2022/12/12 10:47:15;;;;;;;18.33;12.57;;;0.70;99.90;;;;;;4986464;28;20078;-75
2022/12/12 10:49:41;;;;;;;23.87;14.00;;;0.80;99.90;;;;;;5001262;28;20080;-75
2022/12/12 10:52:16;;;;;;;18.73;13.43;;;0.80;99.90;;;;;;4984084;28;20081;-75
2022/12/12 10:54:46;;;;;;;23.23;12.60;;;0.80;99.90;;;;;;5000603;28;20088;-79
2022/12/12 10:57:18;;;;;;;25.87;14.67;;;0.80;99.90;;;;;;5004083;28;20034;-76
2022/12/12 10:59:47;;;;;;;43.10;13.10;;;0.80;99.90;;;;;;5001425;28;20405;-75
2022/12/12 11:02:37;;;;;;;25.53;13.40;;;0.80;99.90;;;;;;5003811;28;20053;-76
2022/12/12 11:05:20;;;;;;;23.30;13.10;;;0.80;99.90;;;;;;4988391;28;20068;-75
2022/12/12 11:07:49;;;;;;;24.92;12.32;;;0.80;99.90;;;;;;5001474;28;20100;-78
2022/12/12 11:10:23;;;;;;;18.03;13.20;;;0.80;99.90;;;;;;5002232;28;20042;-79
2022/12/12 11:13:02;;;;;;;24.27;12.93;;;0.80;99.90;;;;;;5001429;28;20504;-78
2022/12/12 11:15:35;;;;;;;23.50;13.70;;;0.90;99.90;;;;;;4982419;28;20096;-77
2022/12/12 11:18:01;;;;;;;21.63;12.73;;;0.80;99.90;;;;;;4987920;28;20172;-77
2022/12/12 11:20:27;;;;;;;25.60;13.43;;;0.80;99.90;;;;;;5000951;28;20125;-76
2022/12/12 11:22:55;;;;;;;16.07;13.73;;;0.90;99.90;;;;;;5001193;28;20176;-75
2022/12/12 11:25:28;;;;;;;18.77;12.40;;;0.90;99.90;;;;;;5001052;28;20219;-76
2022/12/12 11:27:58;;;;;;;20.30;14.90;;;0.90;99.90;;;;;;5000610;28;20046;-74
2022/12/12 11:30:23;;;;;;;30.73;14.57;;;0.90;99.90;;;;;;5001059;28;20053;-74
2022/12/12 11:32:53;;;;;;;29.20;14.90;;;0.90;99.90;;;;;;4999103;28;20508;-75
2022/12/12 11:35:36;;;;;;;26.30;14.03;;;1.00;99.90;;;;;;5001984;28;20046;-75
2022/12/12 11:38:03;;;;;;;;;;;1.00;99.90;;;;;;4971005;28;20034;-76
2022/12/12 11:40:35;;;;;;;27.80;16.83;;;1.00;99.90;;;;;;5001397;28;19979;-75
2022/12/12 11:43:27;;;;;;;24.17;15.00;;;1.00;99.90;;;;;;5000949;28;20069;-76
2022/12/12 11:46:14;;;;;;;24.15;15.18;;;1.00;99.90;;;;;;5000932;28;20042;-75
2022/12/12 11:48:48;;;;;;;20.57;14.50;;;1.00;99.90;;;;;;4997387;28;20092;-75
2022/12/12 11:51:36;;;;;;;27.37;15.20;;;1.00;99.90;;;;;;4995945;28;20053;-77
2022/12/12 11:54:13;;;;;;;26.40;14.10;;;1.00;99.90;;;;;;4997313;28;20037;-75
2022/12/12 11:56:49;;;;;;;26.33;15.47;;;1.00;99.90;;;;;;4998739;28;20042;-74
2022/12/12 11:59:35;;;;;;;28.03;14.33;;;1.00;99.90;;;;;;5002163;28;20053;-78
2022/12/12 12:02:23;;;;;;;20.33;13.00;;;1.00;99.90;;;;;;5001298;28;20072;-76
2022/12/12 12:04:57;;;;;;;23.53;14.67;;;1.10;99.90;;;;;;4986783;28;20050;-76
2022/12/12 12:07:43;;;;;;;27.87;13.00;;;1.10;99.90;;;;;;4968456;28;20080;-78
2022/12/12 12:10:38;;;;;;;21.77;12.33;;;1.00;99.90;;;;;;4986344;28;20093;-77
2022/12/12 12:13:21;;;;;;;21.40;12.93;;;1.00;99.90;;;;;;4962202;28;20053;-78
2022/12/12 12:16:15;;;;;;;27.17;13.10;;;1.10;99.90;;;;;;5004638;28;20079;-76
2022/12/12 12:18:59;;;;;;;22.27;11.63;;;1.00;99.90;;;;;;4985255;28;20512;-75
2022/12/12 12:21:27;;;;;;;26.50;15.50;;;1.00;99.90;;;;;;4993083;28;20599;-76
2022/12/12 12:23:56;;;;;;;21.17;12.27;;;1.00;99.90;;;;;;5004054;28;20049;-76
2022/12/12 12:26:30;;;;;;;23.23;14.53;;;1.10;99.90;;;;;;5009080;28;20234;-77
2022/12/12 12:29:31;;;;;;;25.37;15.47;;;1.10;99.90;;;;;;5021660;28;20033;-76
2022/12/12 12:32:23;;;;;;;25.33;15.33;;;1.10;99.90;;;;;;5002358;28;20388;-77
2022/12/12 12:35:09;;;;;;;33.33;18.02;;;1.20;99.90;;;;;;4987346;28;20087;-75
2022/12/12 12:37:52;;;;;;;29.67;17.60;;;1.20;99.90;;;;;;5013469;28;20053;-77
2022/12/12 12:40:33;;;;;;;22.87;14.50;;;1.20;99.90;;;;;;5005039;28;20534;-73
2022/12/12 12:43:33;;;;;;;20.63;12.77;;;1.20;99.90;;;;;;5001918;28;20041;-72
2022/12/12 12:46:13;;;;;;;28.77;15.47;;;1.20;99.90;;;;;;5003501;28;20084;-73
2022/12/12 12:49:07;;;;;;;26.73;18.00;;;1.20;99.90;;;;;;5006627;28;20053;-74
2022/12/12 12:51:45;;;;;;;15.73;12.47;;;1.20;99.90;;;;;;5004140;28;20233;-72
2022/12/12 12:54:38;;;;;;;19.47;11.77;;;1.20;99.90;;;;;;5003714;28;20136;-74
2022/12/12 12:57:10;;;;;;;24.57;12.73;;;1.20;99.90;;;;;;4986141;28;20115;-73
2022/12/12 12:59:41;;;;;;;23.00;12.75;;;1.20;99.90;;;;;;5003232;28;20078;-73
2022/12/12 13:02:44;;;;;;;14.00;10.97;;;1.20;99.90;;;;;;5009199;28;20046;-74
2022/12/12 13:05:27;;;;;;;15.87;11.10;;;1.20;99.90;;;;;;5010793;28;20129;-73
2022/12/12 13:08:01;;;;;;;16.63;11.73;;;1.20;99.90;;;;;;5004730;28;20100;-73
2022/12/12 13:10:29;;;;;;;20.43;10.50;;;1.20;99.90;;;;;;5007024;28;20566;-73
2022/12/12 13:13:11;;;;;;;15.70;13.37;;;1.20;99.90;;;;;;4997602;28;20061;-75
2022/12/12 13:15:45;;;;;;;18.27;11.23;;;1.20;99.90;;;;;;4995953;28;20042;-75
2022/12/12 13:18:13;;;;;;;19.83;11.67;;;1.20;99.90;;;;;;4995966;28;20043;-76
2022/12/12 13:21:01;;;;;;;20.47;14.10;;;1.20;99.90;;;;;;5002456;28;20046;-77